GUCY

Details ICAO GUCY (CKY)
Name CONAKRY
Region Guinea
Timezone Africa/Conakry (UTC+0.0)
Plans Departing 57
Arriving 53
Stats Elevation 72 ft / 22 m (AMSL)
Location 9.576897° -13.611879°
Runways 1
Magnetic Variation 7.005° W
Sunrise 2017-12-16 07:04:29 UTC / 2017-12-16 07:04:29 Local
Sunset 2017-12-16 18:38:29 UTC / 2017-12-16 18:38:29 Local
Advertisement - Login to hide

Runways

ID Width Length Bearing (true) Bearing (mag) Surface Threshold Offset Overrun Length
06 148 ft / 45 m 10,836 ft / 3,303 m 49.26° 56.26° Asphalt 0 ft / 0 m 197 ft / 60 m
24 148 ft / 45 m 10,836 ft / 3,303 m 229.27° 236.27° Asphalt 0 ft / 0 m 197 ft / 60 m

Map

Weather


0- 5 10 15 20 25 30 35+ Temperature / ° C

Clouds and Precipitation
Forecast for 2017-12-16 18:00 UTC. Updated 16 minutes ago

Ground ~20,000 ft ~40,000 ft Winds

METAR

GUCY 161700Z 23008KT 5000 HZ SCT110 30/21 Q1011 NOSIG

TAF

TAF GUCY 161100Z 1612/1718 32006KT 5000 HZ NSC TEMPO 1618/1624 FEW016 SCT116 BECMG 1705/1709 VRB02KT 3000 BR FEW015 SCT110

Frequencies

Ground 129.10 MHz GND
Approach 119.70 MHz APP
Tower 118.70 MHz TWR
Warning: Do not use this data for real-world aviation or navigation. No guarantee of current accuracy is given.